PWSweather.com
Personal Weather Stations
Station Observations
INORDPAS37
Bondues, BonduesFR 59910

BonduesBonduesFR 59910

Lat: 50.7, Lon: 3.09

Elevation: 66

Station Type: NetAtmo

High Low Average
Temperature 86.2°F30.1°F 62.8°F17.1°F 75.4°F24.1°F
Dew Point 63.7°F17.6°F 46.6°F8.1°F 55.3°F12.9°F
Winds 7.4 mph WNW11.9 mph WNW 0.6 mph 1.0 mph 2.9 mph 4.7 mph
Wind Gusts 16.1 mph25.9 mph -- 4.9 mph7.9 mph
Humidity 60% 44% 52%
Pressure 29.99 in1015.60 in 29.89 in1012.20 in -
Precipitation 0.00 in0.00 in - -
Hour Temp Dew Point Humidity Winds Wind Gusts Pressure Precip Precip Rate Daily Precip Total
12:16 AM 80.2°F26.8°C 57.0°F13.9°C 46% 1.3 mph SE2.1 kmh SE 3.1 mph5.0 kmh 29.92 in1013.2 mb 0.00 in0.0 mm 0.00 in0.0 mm 0.00 in0.0 mm
12:36 AM 79.7°F26.5°C 56.5°F13.6°C 46% 1.3 mph SE2.1 kmh SE 2.5 mph4.0 kmh 29.91 in1012.9 mb 0.00 in0.0 mm 0.00 in0.0 mm 0.00 in0.0 mm
12:51 AM 79.7°F26.5°C 56.5°F13.6°C 46% 1.2 mph SE1.9 kmh SE -- 29.91 in1012.9 mb 0.00 in0.0 mm 0.00 in0.0 mm 0.00 in0.0 mm
12:56 AM 79.0°F26.1°C 56.3°F13.5°C 47% 1.3 mph SSE2.1 kmh SSE 2.5 mph4.0 kmh 29.91 in1012.9 mb 0.00 in0.0 mm 0.00 in0.0 mm 0.00 in0.0 mm
01:16 AM 78.4°F25.8°C 56.3°F13.5°C 48% 1.3 mph SSE2.1 kmh SSE 3.1 mph5.0 kmh 29.91 in1012.9 mb 0.00 in0.0 mm 0.00 in0.0 mm 0.00 in0.0 mm
01:36 AM 77.9°F25.5°C 56.1°F13.4°C 49% 0.7 mph W1.1 kmh W 1.3 mph2.1 kmh 29.92 in1013.2 mb 0.00 in0.0 mm 0.00 in0.0 mm 0.00 in0.0 mm
01:51 AM 77.9°F25.5°C 56.1°F13.4°C 49% 0.6 mph W1.0 kmh W -- 29.92 in1013.2 mb 0.00 in0.0 mm 0.00 in0.0 mm 0.00 in0.0 mm
01:57 AM 77.2°F25.1°C 55.9°F13.3°C 50% 0.7 mph W1.1 kmh W 1.3 mph2.1 kmh 29.91 in1012.9 mb 0.00 in0.0 mm 0.00 in0.0 mm 0.00 in0.0 mm
02:16 AM 76.5°F24.7°C 55.8°F13.2°C 51% 0.7 mph SSW1.1 kmh SSW 1.8 mph2.9 kmh 29.90 in1012.5 mb 0.00 in0.0 mm 0.00 in0.0 mm 0.00 in0.0 mm
02:37 AM 76.3°F24.6°C 55.9°F13.3°C 52% 0.6 mph SSE1.0 kmh SSE -- 29.90 in1012.5 mb 0.00 in0.0 mm 0.00 in0.0 mm 0.00 in0.0 mm
02:57 AM 76.1°F24.5°C 55.8°F13.2°C 52% 0.7 mph SSE1.1 kmh SSE 2.5 mph4.0 kmh 29.89 in1012.2 mb 0.00 in0.0 mm 0.00 in0.0 mm 0.00 in0.0 mm
03:17 AM 75.9°F24.4°C 55.6°F13.1°C 52% 0.7 mph SW1.1 kmh SW 1.3 mph2.1 kmh 29.90 in1012.5 mb 0.00 in0.0 mm 0.00 in0.0 mm 0.00 in0.0 mm
03:38 AM 75.4°F24.1°C 55.2°F12.9°C 52% 0.6 mph SW1.0 kmh SW -- 29.89 in1012.2 mb 0.00 in0.0 mm 0.00 in0.0 mm 0.00 in0.0 mm
03:58 AM 75.0°F23.9°C 55.2°F12.9°C 53% 1.3 mph WSW2.1 kmh WSW 1.8 mph2.9 kmh 29.89 in1012.2 mb 0.00 in0.0 mm 0.00 in0.0 mm 0.00 in0.0 mm
04:18 AM 74.5°F23.6°C 54.7°F12.6°C 53% 0.7 mph SW1.1 kmh SW 2.5 mph4.0 kmh 29.89 in1012.2 mb 0.00 in0.0 mm 0.00 in0.0 mm 0.00 in0.0 mm
04:38 AM 73.9°F23.3°C 54.7°F12.6°C 54% 0.6 mph W1.0 kmh W -- 29.89 in1012.2 mb 0.00 in0.0 mm 0.00 in0.0 mm 0.00 in0.0 mm
04:58 AM 73.4°F23.0°C 54.7°F12.6°C 55% 1.3 mph W2.1 kmh W 1.8 mph2.9 kmh 29.89 in1012.2 mb 0.00 in0.0 mm 0.00 in0.0 mm 0.00 in0.0 mm
05:18 AM 72.9°F22.7°C 54.1°F12.3°C 55% 1.3 mph W2.1 kmh W 2.5 mph4.0 kmh 29.89 in1012.2 mb 0.00 in0.0 mm 0.00 in0.0 mm 0.00 in0.0 mm
05:39 AM 72.9°F22.7°C 54.5°F12.5°C 56% 1.2 mph W1.9 kmh W -- 29.89 in1012.2 mb 0.00 in0.0 mm 0.00 in0.0 mm 0.00 in0.0 mm
05:59 AM 73.4°F23.0°C 55.0°F12.8°C 56% 1.3 mph W2.1 kmh W 3.8 mph6.1 kmh 29.89 in1012.2 mb 0.00 in0.0 mm 0.00 in0.0 mm 0.00 in0.0 mm
06:19 AM 74.3°F23.5°C 55.9°F13.3°C 56% 1.8 mph WSW2.9 kmh WSW 6.9 mph11.1 kmh 29.89 in1012.2 mb 0.00 in0.0 mm 0.00 in0.0 mm 0.00 in0.0 mm
06:40 AM 74.5°F23.6°C 56.1°F13.4°C 56% 1.9 mph W3.1 kmh W -- 29.90 in1012.5 mb 0.00 in0.0 mm 0.00 in0.0 mm 0.00 in0.0 mm
06:59 AM 75.4°F24.1°C 56.8°F13.8°C 56% 1.8 mph W2.9 kmh W 4.3 mph6.9 kmh 29.90 in1012.5 mb 0.00 in0.0 mm 0.00 in0.0 mm 0.00 in0.0 mm
07:20 AM 76.5°F24.7°C 57.9°F14.4°C 56% 1.8 mph W2.9 kmh W 6.9 mph11.1 kmh 29.91 in1012.9 mb 0.00 in0.0 mm 0.00 in0.0 mm 0.00 in0.0 mm
07:40 AM 76.8°F24.9°C 57.7°F14.3°C 55% 2.5 mph W4.0 kmh W -- 29.91 in1012.9 mb 0.00 in0.0 mm 0.00 in0.0 mm 0.00 in0.0 mm
08:00 AM 77.5°F25.3°C 58.5°F14.7°C 55% 1.3 mph W2.1 kmh W 3.8 mph6.1 kmh 29.91 in1012.9 mb 0.00 in0.0 mm 0.00 in0.0 mm 0.00 in0.0 mm
08:20 AM 78.6°F25.9°C 59.0°F15.0°C 54% 2.5 mph W4.0 kmh W 4.9 mph7.9 kmh 29.91 in1012.9 mb 0.00 in0.0 mm 0.00 in0.0 mm 0.00 in0.0 mm
08:38 AM 79.7°F26.5°C 60.1°F15.6°C 54% 2.5 mph WNW4.0 kmh WNW -- 29.91 in1012.9 mb 0.00 in0.0 mm 0.00 in0.0 mm 0.00 in0.0 mm
08:58 AM 80.6°F27.0°C 60.4°F15.8°C 53% 3.1 mph W5.0 kmh W 5.6 mph9.0 kmh 29.90 in1012.5 mb 0.00 in0.0 mm 0.00 in0.0 mm 0.00 in0.0 mm
09:19 AM 81.7°F27.6°C 61.0°F16.1°C 52% 2.5 mph W4.0 kmh W 5.6 mph9.0 kmh 29.90 in1012.5 mb 0.00 in0.0 mm 0.00 in0.0 mm 0.00 in0.0 mm
09:39 AM 83.1°F28.4°C 62.4°F16.9°C 52% 3.1 mph WSW5.0 kmh WSW -- 29.90 in1012.5 mb 0.00 in0.0 mm 0.00 in0.0 mm 0.00 in0.0 mm
09:59 AM 83.8°F28.8°C 63.0°F17.2°C 52% 3.1 mph WSW5.0 kmh WSW 8.1 mph13.0 kmh 29.90 in1012.5 mb 0.00 in0.0 mm 0.00 in0.0 mm 0.00 in0.0 mm
10:18 AM 84.9°F29.4°C 63.1°F17.3°C 50% 3.1 mph W5.0 kmh W 7.4 mph11.9 kmh 29.89 in1012.2 mb 0.00 in0.0 mm 0.00 in0.0 mm 0.00 in0.0 mm
10:39 AM 85.3°F29.6°C 63.5°F17.5°C 50% 4.3 mph WNW6.9 kmh WNW -- 29.89 in1012.2 mb 0.00 in0.0 mm 0.00 in0.0 mm 0.00 in0.0 mm
11:00 AM 86.0°F30.0°C 63.7°F17.6°C 49% 3.8 mph WSW6.1 kmh WSW 9.4 mph15.1 kmh 29.89 in1012.2 mb 0.00 in0.0 mm 0.00 in0.0 mm 0.00 in0.0 mm
11:20 AM 86.2°F30.1°C 63.0°F17.2°C 47% 4.3 mph WSW6.9 kmh WSW 11.2 mph18.0 kmh 29.89 in1012.2 mb 0.00 in0.0 mm 0.00 in0.0 mm 0.00 in0.0 mm
11:40 AM 86.2°F30.1°C 62.4°F16.9°C 46% 3.1 mph WSW5.0 kmh WSW -- 29.89 in1012.2 mb 0.00 in0.0 mm 0.00 in0.0 mm 0.00 in0.0 mm
12:00 PM 86.0°F30.0°C 61.5°F16.4°C 44% 4.9 mph WNW7.9 kmh WNW 10.5 mph16.9 kmh 29.89 in1012.2 mb 0.00 in0.0 mm 0.00 in0.0 mm 0.00 in0.0 mm
12:20 PM 86.2°F30.1°C 62.1°F16.7°C 45% 3.8 mph WSW6.1 kmh WSW 9.8 mph15.8 kmh 29.89 in1012.2 mb 0.00 in0.0 mm 0.00 in0.0 mm 0.00 in0.0 mm
12:40 PM 85.3°F29.6°C 61.7°F16.5°C 46% 3.7 mph W6.0 kmh W -- 29.90 in1012.5 mb 0.00 in0.0 mm 0.00 in0.0 mm 0.00 in0.0 mm
01:01 PM 84.9°F29.4°C 61.9°F16.6°C 47% 4.3 mph W6.9 kmh W 9.8 mph15.8 kmh 29.91 in1012.9 mb 0.00 in0.0 mm 0.00 in0.0 mm 0.00 in0.0 mm
01:20 PM 83.3°F28.5°C 60.8°F16.0°C 48% 4.3 mph WNW6.9 kmh WNW 15.0 mph24.1 kmh 29.91 in1012.9 mb 0.00 in0.0 mm 0.00 in0.0 mm 0.00 in0.0 mm
01:41 PM 82.0°F27.8°C 60.1°F15.6°C 49% 4.3 mph WSW6.9 kmh WSW -- 29.90 in1012.5 mb 0.00 in0.0 mm 0.00 in0.0 mm 0.00 in0.0 mm
02:00 PM 80.6°F27.0°C 58.6°F14.8°C 49% 7.4 mph WNW11.9 kmh WNW 15.4 mph24.8 kmh 29.92 in1013.2 mb 0.00 in0.0 mm 0.00 in0.0 mm 0.00 in0.0 mm
02:21 PM 77.7°F25.4°C 56.5°F13.6°C 50% 4.9 mph W7.9 kmh W 11.9 mph19.2 kmh 29.92 in1013.2 mb 0.00 in0.0 mm 0.00 in0.0 mm 0.00 in0.0 mm
02:41 PM 74.8°F23.8°C 54.7°F12.6°C 52% 4.3 mph WSW6.9 kmh WSW -- 29.91 in1012.9 mb 0.00 in0.0 mm 0.00 in0.0 mm 0.00 in0.0 mm
03:00 PM 73.6°F23.1°C 54.0°F12.2°C 53% 4.9 mph WSW7.9 kmh WSW 11.9 mph19.2 kmh 29.92 in1013.2 mb 0.00 in0.0 mm 0.00 in0.0 mm 0.00 in0.0 mm
03:21 PM 73.6°F23.1°C 53.4°F11.9°C 52% 4.9 mph W7.9 kmh W 10.5 mph16.9 kmh 29.91 in1012.9 mb 0.00 in0.0 mm 0.00 in0.0 mm 0.00 in0.0 mm
03:37 PM 73.4°F23.0°C 53.8°F12.1°C 53% 5.6 mph WSW9.0 kmh WSW -- 29.91 in1012.9 mb 0.00 in0.0 mm 0.00 in0.0 mm 0.00 in0.0 mm
03:57 PM 74.8°F23.8°C 54.7°F12.6°C 52% 4.3 mph W6.9 kmh W 11.2 mph18.0 kmh 29.91 in1012.9 mb 0.00 in0.0 mm 0.00 in0.0 mm 0.00 in0.0 mm
04:24 PM 75.0°F23.9°C 54.9°F12.7°C 52% 4.9 mph WSW7.9 kmh WSW 14.3 mph23.0 kmh 29.90 in1012.5 mb 0.00 in0.0 mm 0.00 in0.0 mm 0.00 in0.0 mm
04:44 PM 74.3°F23.5°C 53.8°F12.1°C 51% 4.3 mph W6.9 kmh W -- 29.91 in1012.9 mb 0.00 in0.0 mm 0.00 in0.0 mm 0.00 in0.0 mm
05:04 PM 73.6°F23.1°C 53.1°F11.7°C 51% 5.6 mph WSW9.0 kmh WSW 16.1 mph25.9 kmh 29.90 in1012.5 mb 0.00 in0.0 mm 0.00 in0.0 mm 0.00 in0.0 mm
05:25 PM 73.8°F23.2°C 53.2°F11.8°C 51% 4.9 mph W7.9 kmh W 14.3 mph23.0 kmh 29.91 in1012.9 mb 0.00 in0.0 mm 0.00 in0.0 mm 0.00 in0.0 mm
05:45 PM 73.9°F23.3°C 53.1°F11.7°C 50% 4.3 mph WSW6.9 kmh WSW -- 29.92 in1013.2 mb 0.00 in0.0 mm 0.00 in0.0 mm 0.00 in0.0 mm
06:05 PM 73.4°F23.0°C 52.5°F11.4°C 50% 4.9 mph W7.9 kmh W 11.9 mph19.2 kmh 29.92 in1013.2 mb 0.00 in0.0 mm 0.00 in0.0 mm 0.00 in0.0 mm
06:25 PM 71.8°F22.1°C 51.4°F10.8°C 51% 4.3 mph W6.9 kmh W 8.7 mph14.0 kmh 29.93 in1013.5 mb 0.00 in0.0 mm 0.00 in0.0 mm 0.00 in0.0 mm
06:45 PM 70.2°F21.2°C 50.4°F10.2°C 52% 5.6 mph WNW9.0 kmh WNW -- 29.95 in1014.2 mb 0.00 in0.0 mm 0.00 in0.0 mm 0.00 in0.0 mm
07:05 PM 69.6°F20.9°C 50.2°F10.1°C 53% 4.3 mph W6.9 kmh W 9.8 mph15.8 kmh 29.95 in1014.2 mb 0.00 in0.0 mm 0.00 in0.0 mm 0.00 in0.0 mm
07:25 PM 69.3°F20.7°C 50.4°F10.2°C 54% 4.3 mph W6.9 kmh W 11.9 mph19.2 kmh 29.95 in1014.2 mb 0.00 in0.0 mm 0.00 in0.0 mm 0.00 in0.0 mm
07:45 PM 68.7°F20.4°C 49.8°F9.9°C 54% 3.1 mph W5.0 kmh W -- 29.95 in1014.2 mb 0.00 in0.0 mm 0.00 in0.0 mm 0.00 in0.0 mm
07:55 PM 68.5°F20.3°C 49.6°F9.8°C 54% 4.3 mph W6.9 kmh W 9.4 mph15.1 kmh 29.96 in1014.6 mb 0.00 in0.0 mm 0.00 in0.0 mm 0.00 in0.0 mm
08:16 PM 68.0°F20.0°C 49.6°F9.8°C 55% 4.3 mph W6.9 kmh W 11.9 mph19.2 kmh 29.96 in1014.6 mb 0.00 in0.0 mm 0.00 in0.0 mm 0.00 in0.0 mm
08:35 PM 67.5°F19.7°C 49.1°F9.5°C 55% 2.5 mph W4.0 kmh W 6.9 mph11.1 kmh 29.96 in1014.6 mb 0.00 in0.0 mm 0.00 in0.0 mm 0.00 in0.0 mm
08:51 PM 67.5°F19.7°C 49.1°F9.5°C 55% 2.5 mph W4.0 kmh W -- 29.96 in1014.6 mb 0.00 in0.0 mm 0.00 in0.0 mm 0.00 in0.0 mm
09:02 PM 66.9°F19.4°C 48.9°F9.4°C 56% 1.8 mph W2.9 kmh W 4.9 mph7.9 kmh 29.96 in1014.6 mb 0.00 in0.0 mm 0.00 in0.0 mm 0.00 in0.0 mm
09:21 PM 66.6°F19.2°C 48.6°F9.2°C 56% 1.8 mph W2.9 kmh W 4.3 mph6.9 kmh 29.97 in1014.9 mb 0.00 in0.0 mm 0.00 in0.0 mm 0.00 in0.0 mm
09:42 PM 66.2°F19.0°C 48.7°F9.3°C 57% 1.9 mph W3.1 kmh W -- 29.97 in1014.9 mb 0.00 in0.0 mm 0.00 in0.0 mm 0.00 in0.0 mm
10:01 PM 65.7°F18.7°C 48.2°F9.0°C 57% 1.8 mph W2.9 kmh W 8.1 mph13.0 kmh 29.98 in1015.2 mb 0.00 in0.0 mm 0.00 in0.0 mm 0.00 in0.0 mm
10:22 PM 64.9°F18.3°C 48.0°F8.9°C 58% 3.1 mph W5.0 kmh W 7.4 mph11.9 kmh 29.98 in1015.2 mb 0.00 in0.0 mm 0.00 in0.0 mm 0.00 in0.0 mm
10:42 PM 64.2°F17.9°C 47.3°F8.5°C 58% 2.5 mph W4.0 kmh W -- 29.98 in1015.2 mb 0.00 in0.0 mm 0.00 in0.0 mm 0.00 in0.0 mm
11:01 PM 63.7°F17.6°C 47.1°F8.4°C 59% 2.5 mph WSW4.0 kmh WSW 4.9 mph7.9 kmh 29.99 in1015.6 mb 0.00 in0.0 mm 0.00 in0.0 mm 0.00 in0.0 mm
11:22 PM 63.1°F17.3°C 46.6°F8.1°C 59% 1.3 mph WSW2.1 kmh WSW 3.1 mph5.0 kmh 29.98 in1015.2 mb 0.00 in0.0 mm 0.00 in0.0 mm 0.00 in0.0 mm
11:41 PM 62.8°F17.1°C 46.8°F8.2°C 60% 3.1 mph WSW5.0 kmh WSW -- 29.98 in1015.2 mb 0.00 in0.0 mm 0.00 in0.0 mm 0.00 in0.0 mm